Hauptseite
METAR-TAF:

METAR-TAF

Flughäfen :

Flugplatz Les Eplatures

La Chaux-de-Fonds, Schweiz

Breite: 47-05-03N, Länge: 006-47-37E, Höhe: 1027 m

Beobachtung

Neuester Wetterbericht von vor 19 Minuten, um 01:50 UTC
Windstille
Temperatur -2°C
Luftfeuchtigkeit 100%
Luftdruck 1034 hPa
Sichtweite 10 km oder mehr
keine Wolken unter 1500 m und keine Kumulonimbus oder Gewitterwolken

METAR: LSGC 050150Z AUTO 00000KT CAVOK M02/M02 Q1034

Zeit: 03:09 (02:09 UTC)

Prognose

Neuester Wetterbericht von vor 11 Stunden und 44 Minuten, um 14:25 UTC
Gültige Prognose vom 04 um 15 UTC bis 04 um 24 UTC
Wind 5 kt aus Nord
Sichtweite: 1500 m
Durchbrochene Bewölkung in der Höhe von 200 ft
Teilweise durch Nebel bedeckt

TAF: LSGC 041425Z 0415/0424 01005KT 1500 PRFG BKN002

Wetterbeobachtungen und Prognosen von mehr als 4000 Flughäfen (METAR und TAF Bericht).

Die verfügbaren Stationen werden durch gelbe und rote Markierungen auf der Karte dargestellt.

Führen Sie die Maus auf sie, um den Namen der Station zu sehen.

Darauf klicken, um die Beobachtung von Wetterbeobachtungen und Prognosen zu sehen.

Um die Karte zu ändern : klicken Sie auf den grünen Tasten mit einem schwarzen Kreuz Zum Vergrößern, auf den grünen Button mit einem Gedankenstrich zu verkleinern, oder auf die grünen Pfeile für benachbarte Karten.


METAR-TAF: